createdAt,value
2023-02-28T09:32:13.563Z,101797.09
2023-02-28T09:34:16.933Z,101797.09
2023-02-28T09:36:19.957Z,101797.34
2023-02-28T09:38:22.340Z,101792.06
2023-02-28T09:40:26.828Z,101799.69
2023-02-28T09:42:34.611Z,101797.75
2023-02-28T09:44:42.366Z,101811.47
2023-02-28T09:46:53.674Z,101790.41
2023-02-28T09:48:57.774Z,101784.41
2023-02-28T09:51:04.391Z,101783.63
2023-02-28T09:53:21.004Z,101786.06
2023-02-28T09:55:35.240Z,101790.97
2023-02-28T09:57:42.445Z,101790.94
2023-02-28T09:59:51.142Z,101800.97
2023-02-28T10:02:12.685Z,101794.16
2023-02-28T10:04:30.554Z,101790.63
2023-02-28T10:06:51.205Z,101799.97
2023-02-28T10:09:02.580Z,101799.03
2023-02-28T10:11:09.016Z,101788.59
2023-02-28T10:13:20.371Z,101791.62
2023-02-28T10:15:27.355Z,101790.59
2023-02-28T10:17:54.771Z,101783.56
2023-02-28T10:20:12.670Z,101799.28
2023-02-28T10:22:23.352Z,101777.31
2023-02-28T10:24:40.439Z,101777.31
2023-02-28T10:26:46.203Z,101792.97
2023-02-28T10:28:48.598Z,101776.53
2023-02-28T10:30:53.874Z,101780.19
2023-02-28T10:32:56.745Z,101779.84
2023-02-28T10:34:59.628Z,101793.56
2023-02-28T10:37:08.331Z,101790.38
2023-02-28T10:39:45.068Z,101775.69
2023-02-28T10:41:47.419Z,101777.13
2023-02-28T10:43:50.209Z,101777.47
2023-02-28T10:46:00.018Z,101774.38
2023-02-28T10:48:05.401Z,101771.72
2023-02-28T10:50:53.229Z,101768.13
2023-02-28T10:52:56.182Z,101771.91
2023-02-28T10:55:16.811Z,101758.53
2023-02-28T10:57:29.830Z,101760.22
2023-02-28T10:59:32.523Z,101770.00
2023-02-28T11:01:46.496Z,101768.13
2023-02-28T11:03:50.072Z,101771.91
2023-02-28T11:05:52.435Z,101765.87
2023-02-28T11:08:12.287Z,101766.31
2023-02-28T11:10:22.094Z,101756.53
2023-02-28T11:12:29.268Z,101762.47
2023-02-28T11:14:48.650Z,101755.03
2023-02-28T11:16:52.702Z,101758.97
2023-02-28T11:18:56.531Z,101751.03
2023-02-28T11:21:02.522Z,101753.19
2023-02-28T11:23:06.065Z,101760.91
2023-02-28T11:25:24.117Z,101747.91
2023-02-28T11:27:32.481Z,101750.12
2023-02-28T11:29:36.047Z,101748.25
2023-02-28T11:31:38.502Z,101748.81
2023-02-28T11:33:52.657Z,101744.53
2023-02-28T11:36:03.100Z,101747.94
2023-02-28T11:38:13.823Z,101738.50
2023-02-28T11:40:18.308Z,101741.25
2023-02-28T11:42:41.337Z,101744.56
2023-02-28T11:45:12.372Z,101747.84
2023-02-28T11:47:29.992Z,101735.41
2023-02-28T11:49:47.798Z,101731.09
2023-02-28T11:51:59.305Z,101728.50
2023-02-28T11:54:14.164Z,101730.00
2023-02-28T11:56:30.062Z,101730.34
2023-02-28T11:58:48.303Z,101732.69
2023-02-28T12:01:00.050Z,101734.66
2023-02-28T12:03:23.874Z,101733.91
2023-02-28T12:05:31.870Z,101738.56
2023-02-28T12:07:52.911Z,101736.25
2023-02-28T12:10:34.742Z,101741.22
2023-02-28T12:12:42.871Z,101722.31
2023-02-28T12:15:12.836Z,101730.78
2023-02-28T12:17:18.314Z,101744.78
2023-02-28T12:19:44.769Z,101732.31
2023-02-28T12:22:09.417Z,101736.78
2023-02-28T12:24:51.590Z,101748.75
2023-02-28T12:26:56.025Z,101762.37
2023-02-28T12:29:48.794Z,101743.03
2023-02-28T12:32:05.032Z,101739.78
2023-02-28T12:34:13.272Z,101727.56
2023-02-28T12:36:20.430Z,101737.88
2023-02-28T12:38:30.553Z,101740.31
2023-02-28T12:40:47.287Z,101722.41
2023-02-28T12:43:06.977Z,101718.84
2023-02-28T12:45:19.921Z,101722.25
2023-02-28T12:47:22.308Z,101722.38
2023-02-28T12:49:43.049Z,101718.28
2023-02-28T12:51:48.057Z,101712.56
2023-02-28T12:54:17.845Z,101690.91
2023-02-28T12:56:35.446Z,101687.72
2023-02-28T12:58:46.488Z,101681.16
2023-02-28T13:01:02.083Z,101686.22
2023-02-28T13:03:19.801Z,101692.41
2023-02-28T13:05:49.941Z,101680.63
2023-02-28T13:08:09.683Z,101695.34
2023-02-28T13:10:12.303Z,101698.37
2023-02-28T13:12:17.633Z,101712.44
2023-02-28T13:14:36.661Z,101706.41
2023-02-28T13:17:13.630Z,101703.22
2023-02-28T13:19:19.702Z,101689.47
2023-02-28T13:21:25.100Z,101695.38
2023-02-28T13:23:48.275Z,101679.72
2023-02-28T13:25:54.524Z,101667.84
2023-02-28T13:27:58.014Z,101676.22
2023-02-28T13:30:01.550Z,101688.56
2023-02-28T13:32:06.995Z,101677.63
2023-02-28T13:34:17.366Z,101677.34
2023-02-28T13:36:19.628Z,101665.50
2023-02-28T13:38:35.775Z,101671.72
2023-02-28T13:40:38.915Z,101659.06
2023-02-28T13:42:47.659Z,101651.72
2023-02-28T13:45:02.745Z,101642.78
2023-02-28T13:47:05.081Z,101644.41
2023-02-28T13:49:39.708Z,101632.28
2023-02-28T13:51:50.913Z,101635.81
2023-02-28T13:54:05.002Z,101636.84
2023-02-28T13:56:31.330Z,101621.78
2023-02-28T13:58:44.320Z,101600.03
2023-02-28T14:01:22.312Z,101601.16
2023-02-28T14:03:43.051Z,101598.94
2023-02-28T14:05:45.966Z,101600.84
2023-02-28T14:07:51.763Z,101599.53
2023-02-28T14:10:06.388Z,101593.56
2023-02-28T14:12:46.539Z,101587.13
2023-02-28T14:14:48.990Z,101584.12
2023-02-28T14:16:52.184Z,101590.47
2023-02-28T14:19:02.713Z,101590.72
2023-02-28T14:21:13.115Z,101594.81
2023-02-28T14:23:34.217Z,101586.13
2023-02-28T14:25:46.623Z,101579.25
2023-02-28T14:27:51.205Z,101570.78
2023-02-28T14:30:25.205Z,101577.72
2023-02-28T14:32:50.603Z,101579.13
2023-02-28T14:35:16.403Z,101570.47
2023-02-28T14:37:27.998Z,101556.19
2023-02-28T14:39:32.639Z,101555.19
2023-02-28T14:41:39.907Z,101548.25
2023-02-28T14:43:52.298Z,101554.03
2023-02-28T14:46:03.164Z,101548.78
2023-02-28T14:48:11.082Z,101556.69
2023-02-28T14:50:36.318Z,101554.09
2023-02-28T14:52:38.704Z,101556.94
2023-02-28T14:54:42.345Z,101561.00
2023-02-28T14:56:45.026Z,101545.78
2023-02-28T14:58:53.613Z,101547.31
2023-02-28T15:00:58.790Z,101557.88
2023-02-28T15:03:18.306Z,101560.41
2023-02-28T15:05:23.886Z,101553.62
2023-02-28T15:07:30.002Z,101553.25
2023-02-28T15:09:32.805Z,101560.16
2023-02-28T15:11:36.501Z,101560.06
2023-02-28T15:13:46.130Z,101564.47
2023-02-28T15:16:02.979Z,101565.28
2023-02-28T15:18:07.274Z,101561.72
2023-02-28T15:20:14.198Z,101560.75
2023-02-28T15:22:30.036Z,101558.41
2023-02-28T15:24:43.370Z,101557.75
2023-02-28T15:26:50.836Z,101548.94
2023-02-28T15:29:00.393Z,101548.06
2023-02-28T15:31:19.469Z,101546.66
2023-02-28T15:33:24.825Z,101544.09
2023-02-28T15:35:28.820Z,101539.66
2023-02-28T15:37:34.546Z,101527.94
2023-02-28T15:39:45.086Z,101526.34
2023-02-28T15:41:47.977Z,101524.50
2023-02-28T15:43:50.425Z,101523.78
2023-02-28T15:46:05.712Z,101527.19
2023-02-28T15:48:20.054Z,101519.81
2023-02-28T15:50:22.525Z,101516.88
2023-02-28T15:52:42.821Z,101518.81
2023-02-28T15:54:46.395Z,101511.00
2023-02-28T15:56:53.924Z,101512.59
2023-02-28T15:59:08.541Z,101518.63
2023-02-28T16:01:24.653Z,101515.22
2023-02-28T16:03:41.804Z,101511.87
2023-02-28T16:05:44.355Z,101511.87
2023-02-28T16:07:49.990Z,101512.66
2023-02-28T16:09:52.873Z,101512.66
2023-02-28T16:11:58.469Z,101508.41
2023-02-28T16:14:03.105Z,101513.50
2023-02-28T16:16:06.070Z,101512.75
2023-02-28T16:18:11.504Z,101517.22
2023-02-28T16:20:18.474Z,101523.16
2023-02-28T16:22:21.363Z,101520.03
2023-02-28T16:24:24.069Z,101521.00
2023-02-28T16:26:28.463Z,101521.00
2023-02-28T16:28:35.049Z,101518.41
2023-02-28T16:30:37.611Z,101514.03
2023-02-28T16:32:40.371Z,101507.19
2023-02-28T16:34:44.897Z,101514.03
2023-02-28T16:36:49.259Z,101513.12
2023-02-28T16:38:53.196Z,101501.06
2023-02-28T16:41:00.110Z,101512.25
2023-02-28T16:43:14.639Z,101514.78
2023-02-28T16:45:26.541Z,101511.56
2023-02-28T16:47:30.827Z,101513.47
2023-02-28T16:49:33.586Z,101515.09
2023-02-28T16:51:36.821Z,101518.47
2023-02-28T16:53:40.541Z,101519.31
2023-02-28T16:55:43.280Z,101521.22
2023-02-28T16:57:53.162Z,101521.13
2023-02-28T16:59:56.379Z,101520.22
2023-02-28T17:01:59.425Z,101522.84
2023-02-28T17:04:02.040Z,101523.00
2023-02-28T17:06:17.678Z,101525.37
2023-02-28T17:08:20.829Z,101522.84
2023-02-28T17:10:26.189Z,101520.31
2023-02-28T17:12:29.348Z,101526.25
2023-02-28T17:14:33.348Z,101527.97
2023-02-28T17:16:40.942Z,101522.06
2023-02-28T17:18:44.107Z,101523.72
2023-02-28T17:20:47.649Z,101526.38
2023-02-28T17:22:57.559Z,101529.50
2023-02-28T17:25:00.693Z,101527.09
2023-02-28T17:27:03.740Z,101523.03
2023-02-28T17:29:18.110Z,101515.16
2023-02-28T17:31:24.257Z,101519.44
2023-02-28T17:33:28.927Z,101521.22
2023-02-28T17:35:31.869Z,101523.72
2023-02-28T17:37:35.671Z,101523.72
2023-02-28T17:39:39.144Z,101524.81
2023-02-28T17:41:42.982Z,101519.47
2023-02-28T17:43:46.271Z,101527.00
2023-02-28T17:45:48.896Z,101529.81
2023-02-28T17:47:51.938Z,101531.56
2023-02-28T17:49:54.990Z,101529.84
2023-02-28T17:51:58.480Z,101523.72
2023-02-28T17:54:01.891Z,101528.84
2023-02-28T17:56:06.915Z,101534.19
2023-02-28T17:58:12.758Z,101522.16
2023-02-28T18:00:18.825Z,101525.53
2023-02-28T18:02:23.328Z,101531.59
2023-02-28T18:04:28.574Z,101534.87
2023-02-28T18:06:51.265Z,101538.41
2023-02-28T18:08:55.108Z,101539.38
2023-02-28T18:10:58.402Z,101531.59
2023-02-28T18:13:01.277Z,101532.47
2023-02-28T18:15:05.497Z,101534.94
2023-02-28T18:17:08.256Z,101529.97
2023-02-28T18:19:15.461Z,101523.97
2023-02-28T18:21:21.880Z,101531.75
2023-02-28T18:23:25.531Z,101532.72
2023-02-28T18:25:29.208Z,101528.44
2023-02-28T18:27:32.988Z,101536.06
2023-02-28T18:29:39.617Z,101536.13
2023-02-28T18:31:44.318Z,101529.19
2023-02-28T18:33:52.855Z,101536.16
2023-02-28T18:35:57.076Z,101536.94
2023-02-28T18:38:00.095Z,101531.63
2023-02-28T18:40:06.816Z,101534.34
2023-02-28T18:42:11.182Z,101540.59
2023-02-28T18:44:21.252Z,101534.50
2023-02-28T18:46:25.746Z,101544.75
2023-02-28T18:48:28.997Z,101536.19
2023-02-28T18:50:32.648Z,101534.56
2023-02-28T18:52:36.707Z,101540.47
2023-02-28T18:54:40.516Z,101542.31
2023-02-28T18:56:45.540Z,101537.94
2023-02-28T18:58:50.043Z,101537.94
2023-02-28T19:00:53.233Z,101537.03
2023-02-28T19:02:56.978Z,101536.03
2023-02-28T19:05:03.817Z,101535.28
2023-02-28T19:07:07.557Z,101537.94
2023-02-28T19:09:11.097Z,101536.19
2023-02-28T19:11:25.220Z,101527.34
2023-02-28T19:13:29.400Z,101532.59
2023-02-28T19:15:35.092Z,101536.88
2023-02-28T19:17:39.913Z,101533.44
2023-02-28T19:19:43.331Z,101532.56
2023-02-28T19:21:50.659Z,101537.69
2023-02-28T19:23:54.823Z,101539.31
2023-02-28T19:25:58.545Z,101545.34
2023-02-28T19:28:01.977Z,101527.50
2023-02-28T19:30:06.928Z,101529.19
2023-02-28T19:32:12.032Z,101533.38
2023-02-28T19:34:15.676Z,101529.09
2023-02-28T19:36:22.664Z,101523.31
2023-02-28T19:38:25.885Z,101525.91
2023-02-28T19:40:29.126Z,101521.50
2023-02-28T19:42:34.992Z,101527.69
2023-02-28T19:44:39.777Z,101520.78
2023-02-28T19:46:43.828Z,101525.00
2023-02-28T19:48:49.267Z,101521.87
2023-02-28T19:51:09.395Z,101522.56
2023-02-28T19:53:12.489Z,101519.97
2023-02-28T19:55:17.834Z,101519.72
2023-02-28T19:57:20.987Z,101535.37
2023-02-28T19:59:35.926Z,101529.31
2023-02-28T20:01:42.052Z,101524.97
2023-02-28T20:03:51.836Z,101528.37
2023-02-28T20:06:10.387Z,101528.37
2023-02-28T20:08:15.698Z,101524.22
2023-02-28T20:10:20.233Z,101525.78
2023-02-28T20:12:24.989Z,101521.34
2023-02-28T20:14:28.981Z,101530.06
2023-02-28T20:16:33.203Z,101535.31
2023-02-28T20:18:38.741Z,101531.03
2023-02-28T20:20:42.733Z,101529.31
2023-02-28T20:22:46.589Z,101531.03
2023-02-28T20:24:49.583Z,101529.28
2023-02-28T20:26:54.252Z,101532.75
2023-02-28T20:28:58.401Z,101528.37
2023-02-28T20:31:02.128Z,101529.34
2023-02-28T20:33:05.786Z,101534.41
2023-02-28T20:35:11.924Z,101530.12
2023-02-28T20:37:16.377Z,101526.84
2023-02-28T20:39:20.517Z,101524.19
2023-02-28T20:41:24.446Z,101521.47
2023-02-28T20:43:28.484Z,101526.84
2023-02-28T20:45:32.515Z,101516.41
2023-02-28T20:47:36.209Z,101514.94
2023-02-28T20:49:39.563Z,101512.25
2023-02-28T20:51:42.762Z,101518.44
2023-02-28T20:53:46.516Z,101513.97
2023-02-28T20:56:12.120Z,101519.16
2023-02-28T20:58:15.407Z,101514.78
2023-02-28T21:00:19.535Z,101513.81
2023-02-28T21:02:23.166Z,101519.88
2023-02-28T21:04:26.279Z,101517.38
2023-02-28T21:06:33.410Z,101526.75
2023-02-28T21:08:37.855Z,101515.66
2023-02-28T21:10:40.687Z,101520.09
2023-02-28T21:12:44.135Z,101513.97
2023-02-28T21:14:46.623Z,101510.69
2023-02-28T21:16:49.187Z,101495.97
2023-02-28T21:18:53.652Z,101506.22
2023-02-28T21:21:02.011Z,101501.03
2023-02-28T21:23:07.094Z,101508.00
2023-02-28T21:25:09.744Z,101496.66
2023-02-28T21:27:12.736Z,101502.66
2023-02-28T21:29:16.535Z,101501.84
2023-02-28T21:31:21.792Z,101505.38
2023-02-28T21:33:24.440Z,101501.81
2023-02-28T21:35:27.038Z,101502.66
2023-02-28T21:37:30.217Z,101501.87
2023-02-28T21:39:32.610Z,101502.66
2023-02-28T21:41:35.444Z,101504.47
2023-02-28T21:43:38.878Z,101504.53
2023-02-28T21:45:41.234Z,101509.69
2023-02-28T21:47:43.599Z,101500.25
2023-02-28T21:49:46.198Z,101510.56
2023-02-28T21:51:48.715Z,101500.34
2023-02-28T21:53:51.632Z,101506.28
2023-02-28T21:55:54.275Z,101503.59
2023-02-28T21:57:56.674Z,101496.00
2023-02-28T21:59:59.327Z,101500.09
2023-02-28T22:02:02.178Z,101513.00
2023-02-28T22:04:07.274Z,101510.56
2023-02-28T22:06:15.566Z,101506.22
2023-02-28T22:08:17.860Z,101508.75
2023-02-28T22:10:20.617Z,101506.06
2023-02-28T22:12:22.973Z,101510.41
2023-02-28T22:14:25.622Z,101510.50
2023-02-28T22:16:33.192Z,101507.06
2023-02-28T22:18:39.232Z,101500.91
2023-02-28T22:20:41.513Z,101501.03
2023-02-28T22:22:44.094Z,101504.34
2023-02-28T22:24:46.383Z,101506.22
2023-02-28T22:26:49.848Z,101516.53
2023-02-28T22:28:52.443Z,101512.28
2023-02-28T22:30:54.752Z,101505.44
2023-02-28T22:32:57.096Z,101519.91
2023-02-28T22:34:59.692Z,101504.56
2023-02-28T22:37:01.997Z,101514.13
2023-02-28T22:39:05.280Z,101510.56
2023-02-28T22:41:08.324Z,101513.97
2023-02-28T22:43:11.334Z,101520.81
2023-02-28T22:45:13.722Z,101522.41
2023-02-28T22:47:16.616Z,101510.47
2023-02-28T22:49:18.921Z,101524.19
2023-02-28T22:51:24.090Z,101522.59
2023-02-28T22:53:26.689Z,101522.50
2023-02-28T22:55:28.968Z,101525.97
2023-02-28T22:57:31.268Z,101522.44
2023-02-28T22:59:33.887Z,101519.88
2023-02-28T23:01:36.323Z,101528.56
2023-02-28T23:03:39.695Z,101516.41
2023-02-28T23:05:42.326Z,101515.50
2023-02-28T23:07:44.733Z,101520.16
